createdAt,value
2023-01-30T00:00:21.591Z,-0.02
2023-01-30T00:02:50.704Z,0.02
2023-01-30T00:05:20.346Z,0.02
2023-01-30T00:07:50.402Z,0.00
2023-01-30T00:10:20.341Z,-0.04
2023-01-30T00:12:50.895Z,-0.09
2023-01-30T00:15:20.146Z,-0.14
2023-01-30T00:17:49.029Z,-0.15
2023-01-30T00:20:19.865Z,-0.32
2023-01-30T00:23:00.211Z,-0.20
2023-01-30T00:25:31.750Z,-0.13
2023-01-30T00:28:04.099Z,-0.09
2023-01-30T00:30:33.420Z,-0.17
2023-01-30T00:33:02.511Z,-0.13
2023-01-30T00:35:31.943Z,-0.25
2023-01-30T00:38:01.829Z,-0.24
2023-01-30T00:40:32.423Z,-0.28
2023-01-30T00:43:20.707Z,-0.29
2023-01-30T00:46:09.538Z,-0.30
2023-01-30T00:48:38.568Z,-0.32
2023-01-30T00:51:07.673Z,-0.38
2023-01-30T00:53:38.071Z,-0.32
2023-01-30T00:56:08.148Z,-0.38
2023-01-30T00:58:38.896Z,-0.30
2023-01-30T01:01:08.051Z,-0.23
2023-01-30T01:03:37.013Z,-0.25
2023-01-30T01:06:06.374Z,-0.26
2023-01-30T01:08:35.435Z,-0.38
2023-01-30T01:11:04.374Z,-0.28
2023-01-30T01:13:33.615Z,-0.21
2023-01-30T01:16:04.065Z,-0.16
2023-01-30T01:18:33.962Z,-0.14
2023-01-30T01:21:02.854Z,-0.23
2023-01-30T01:23:32.684Z,-0.14
2023-01-30T01:26:03.317Z,-0.18
2023-01-30T01:28:32.571Z,-0.16
2023-01-30T01:31:08.710Z,-0.29
2023-01-30T01:33:37.754Z,-0.23
2023-01-30T01:36:07.968Z,-0.25
2023-01-30T01:38:36.993Z,-0.21
2023-01-30T01:41:06.558Z,-0.25
2023-01-30T01:43:40.304Z,-0.27
2023-01-30T01:46:18.834Z,-0.19
2023-01-30T01:48:53.658Z,-0.28
2023-01-30T01:51:31.246Z,-0.17
2023-01-30T01:54:05.844Z,-0.23
2023-01-30T01:56:38.106Z,-0.23
2023-01-30T01:59:15.003Z,-0.22
2023-01-30T02:01:45.441Z,-0.23
2023-01-30T02:04:37.132Z,-0.15
2023-01-30T02:07:06.724Z,-0.18
2023-01-30T02:09:36.435Z,-0.09
2023-01-30T02:12:06.905Z,-0.07
2023-01-30T02:14:37.430Z,-0.01
2023-01-30T02:17:28.059Z,-0.11
2023-01-30T02:20:06.498Z,-0.21
2023-01-30T02:22:59.382Z,-0.15
2023-01-30T02:26:17.372Z,-0.07
2023-01-30T02:29:06.632Z,-0.18
2023-01-30T02:31:44.405Z,-0.35
2023-01-30T02:34:32.496Z,-0.23
2023-01-30T02:37:16.088Z,-0.30
2023-01-30T02:39:58.406Z,-0.14
2023-01-30T02:42:36.231Z,-0.14
2023-01-30T02:45:14.435Z,-0.20
2023-01-30T02:47:51.031Z,-0.20
2023-01-30T02:50:26.117Z,-0.17
2023-01-30T02:52:57.276Z,-0.21
2023-01-30T02:55:28.816Z,-0.20
2023-01-30T02:58:00.481Z,-0.26
2023-01-30T03:00:39.847Z,-0.35
2023-01-30T03:03:41.359Z,-0.40
2023-01-30T03:06:31.612Z,-0.32
2023-01-30T03:09:15.173Z,-0.28
2023-01-30T03:11:49.356Z,-0.17
2023-01-30T03:14:26.433Z,-0.24
2023-01-30T03:16:59.750Z,-0.27
2023-01-30T03:19:31.354Z,-0.23
2023-01-30T03:22:02.594Z,-0.37
2023-01-30T03:24:32.880Z,-0.24
2023-01-30T03:27:08.149Z,-0.21
2023-01-30T03:29:38.883Z,-0.30
2023-01-30T03:32:09.164Z,-0.35
2023-01-30T03:34:40.705Z,-0.29
2023-01-30T03:37:10.193Z,-0.37
2023-01-30T03:39:39.408Z,-0.41
2023-01-30T03:42:09.833Z,-0.57
2023-01-30T03:44:39.411Z,-0.45
2023-01-30T03:47:09.661Z,-0.43
2023-01-30T03:49:40.229Z,-0.50
2023-01-30T03:52:09.870Z,-0.47
2023-01-30T03:54:40.997Z,-0.36
2023-01-30T03:57:10.541Z,-0.27
2023-01-30T03:59:40.268Z,-0.28
2023-01-30T04:02:12.613Z,-0.28
2023-01-30T04:04:43.397Z,-0.38
2023-01-30T04:07:14.244Z,-0.41
2023-01-30T04:09:45.284Z,-0.55
2023-01-30T04:12:15.623Z,-0.62
2023-01-30T04:14:56.317Z,-0.47
2023-01-30T04:17:45.939Z,-0.43
2023-01-30T04:20:46.899Z,-0.46
2023-01-30T04:23:18.743Z,-0.46
2023-01-30T04:25:48.613Z,-0.48
2023-01-30T04:28:21.292Z,-0.47
2023-01-30T04:30:50.494Z,-0.47
2023-01-30T04:33:40.324Z,-0.59
2023-01-30T04:36:12.981Z,-0.59
2023-01-30T04:38:43.137Z,-0.51
2023-01-30T04:41:12.775Z,-0.67
2023-01-30T04:43:44.805Z,-0.56
2023-01-30T04:46:16.980Z,-0.55
2023-01-30T04:48:46.186Z,-0.56
2023-01-30T04:51:16.682Z,-0.52
2023-01-30T04:53:45.747Z,-0.47
2023-01-30T04:56:16.228Z,-0.49
2023-01-30T04:58:45.939Z,-0.55
2023-01-30T05:01:17.934Z,-0.56
2023-01-30T05:03:46.904Z,-0.59
2023-01-30T05:06:17.448Z,-0.52
2023-01-30T05:08:49.214Z,-0.55
2023-01-30T05:11:18.383Z,-0.59
2023-01-30T05:13:47.521Z,-0.56
2023-01-30T05:16:17.920Z,-0.50
2023-01-30T05:18:46.991Z,-0.44
2023-01-30T05:21:19.488Z,-0.53
2023-01-30T05:23:48.766Z,-0.61
2023-01-30T05:26:19.353Z,-0.58
2023-01-30T05:28:53.166Z,-0.67
2023-01-30T05:31:23.301Z,-0.72
2023-01-30T05:33:53.569Z,-0.65
2023-01-30T05:36:24.911Z,-0.64
2023-01-30T05:38:54.613Z,-0.70
2023-01-30T05:41:23.708Z,-0.64
2023-01-30T05:43:53.384Z,-0.69
2023-01-30T05:46:22.644Z,-0.70
2023-01-30T05:48:52.990Z,-0.71
2023-01-30T05:51:25.520Z,-0.71
2023-01-30T05:53:55.105Z,-0.62
2023-01-30T05:56:25.153Z,-0.53
2023-01-30T05:58:56.457Z,-0.48
2023-01-30T06:01:26.346Z,-0.54
2023-01-30T06:03:56.089Z,-0.51
2023-01-30T06:06:27.214Z,-0.54
2023-01-30T06:08:57.029Z,-0.51
2023-01-30T06:11:26.646Z,-0.47
2023-01-30T06:13:55.607Z,-0.49
2023-01-30T06:16:24.627Z,-0.48
2023-01-30T06:18:53.710Z,-0.39
2023-01-30T06:21:23.223Z,-0.53
2023-01-30T06:23:54.363Z,-0.41
2023-01-30T06:26:23.734Z,-0.42
2023-01-30T06:28:53.420Z,-0.40
2023-01-30T06:31:22.535Z,-0.42
2023-01-30T06:33:51.496Z,-0.37
2023-01-30T06:36:20.608Z,-0.34
2023-01-30T06:38:50.131Z,-0.33
2023-01-30T06:41:20.625Z,-0.39
2023-01-30T06:43:49.813Z,-0.30
2023-01-30T06:46:18.989Z,-0.25
2023-01-30T06:48:49.427Z,-0.30
2023-01-30T06:51:18.483Z,-0.37
2023-01-30T06:53:48.068Z,-0.25
2023-01-30T06:56:17.650Z,-0.24
2023-01-30T06:58:48.056Z,-0.24
2023-01-30T07:01:17.182Z,-0.23
2023-01-30T07:03:46.204Z,-0.26
2023-01-30T07:06:18.371Z,-0.19
2023-01-30T07:08:49.191Z,-0.16
2023-01-30T07:11:18.647Z,-0.27
2023-01-30T07:13:49.085Z,-0.10
2023-01-30T07:16:20.961Z,-0.14
2023-01-30T07:18:50.101Z,0.00
2023-01-30T07:21:19.135Z,-0.04
2023-01-30T07:23:48.847Z,0.02
2023-01-30T07:26:17.946Z,-0.08
2023-01-30T07:28:49.094Z,-0.02
2023-01-30T07:31:18.178Z,-0.04
2023-01-30T07:33:47.259Z,-0.08
2023-01-30T07:36:16.957Z,-0.11
2023-01-30T07:38:46.015Z,-0.07
2023-01-30T07:41:15.082Z,-0.12
2023-01-30T07:43:44.149Z,-0.06
2023-01-30T07:46:15.259Z,-0.10
2023-01-30T07:48:46.274Z,0.02
2023-01-30T07:51:18.510Z,0.12
2023-01-30T07:53:51.642Z,0.04
2023-01-30T07:56:23.838Z,0.06
2023-01-30T07:58:53.312Z,-0.01
2023-01-30T08:01:25.070Z,0.03
2023-01-30T08:03:54.053Z,-0.12
2023-01-30T08:06:23.200Z,-0.05
2023-01-30T08:08:52.301Z,0.04
2023-01-30T08:11:21.598Z,0.06
2023-01-30T08:13:50.705Z,0.16
2023-01-30T08:16:19.874Z,0.18
2023-01-30T08:18:50.308Z,0.16
2023-01-30T08:21:19.636Z,0.17
2023-01-30T08:23:48.809Z,0.18
2023-01-30T08:26:18.027Z,0.18
2023-01-30T08:28:47.304Z,0.20
2023-01-30T08:31:17.766Z,0.14
2023-01-30T08:33:47.011Z,0.19
2023-01-30T08:36:17.690Z,0.22
2023-01-30T08:38:48.728Z,0.19
2023-01-30T08:41:17.820Z,0.20
2023-01-30T08:43:46.948Z,0.09
2023-01-30T08:46:17.640Z,0.06
2023-01-30T08:48:49.888Z,0.04
2023-01-30T08:51:21.522Z,0.05
2023-01-30T08:53:50.691Z,0.06
2023-01-30T08:56:19.720Z,-0.06
2023-01-30T08:58:49.453Z,0.03
2023-01-30T09:01:19.547Z,-0.04
2023-01-30T09:03:49.239Z,-0.10
2023-01-30T09:06:18.924Z,-0.08
2023-01-30T09:08:49.479Z,-0.16
2023-01-30T09:11:18.917Z,0.07
2023-01-30T09:13:49.785Z,0.17
2023-01-30T09:16:19.117Z,0.12
2023-01-30T09:18:49.426Z,0.20
2023-01-30T09:21:18.527Z,0.19
2023-01-30T09:23:49.138Z,0.15
2023-01-30T09:26:18.287Z,0.26
2023-01-30T09:28:47.355Z,0.15
2023-01-30T09:31:16.799Z,0.09
2023-01-30T09:33:46.061Z,0.07
2023-01-30T09:36:15.297Z,0.19
2023-01-30T09:38:44.307Z,0.20
2023-01-30T09:41:39.595Z,0.20
2023-01-30T09:44:31.361Z,0.22
2023-01-30T09:47:10.732Z,0.23
2023-01-30T09:49:47.829Z,0.19
2023-01-30T09:52:26.406Z,0.22
2023-01-30T09:55:02.645Z,0.29
2023-01-30T09:57:34.812Z,0.34
2023-01-30T10:00:09.676Z,0.28
2023-01-30T10:02:49.642Z,0.35
2023-01-30T10:05:18.966Z,0.47
2023-01-30T10:08:09.913Z,0.40
2023-01-30T10:10:55.035Z,0.34
2023-01-30T10:13:43.222Z,0.25
2023-01-30T10:16:20.386Z,0.43
2023-01-30T10:18:59.078Z,0.44
2023-01-30T10:21:38.624Z,0.37
2023-01-30T10:24:22.555Z,0.36
2023-01-30T10:26:52.164Z,0.36
2023-01-30T10:29:27.956Z,0.38
2023-01-30T10:32:02.711Z,0.29
2023-01-30T10:34:35.380Z,0.32
2023-01-30T10:37:10.111Z,0.43
2023-01-30T10:39:55.155Z,0.42
2023-01-30T10:42:30.788Z,0.40
2023-01-30T10:45:12.298Z,0.55
2023-01-30T10:47:56.811Z,0.51
2023-01-30T10:50:32.598Z,0.42
2023-01-30T10:53:10.097Z,0.45
2023-01-30T10:55:45.233Z,0.44
2023-01-30T10:58:24.370Z,0.27
2023-01-30T11:01:01.881Z,0.36
2023-01-30T11:03:39.448Z,0.41
2023-01-30T11:06:13.235Z,0.32
2023-01-30T11:08:42.292Z,0.35
2023-01-30T11:11:29.970Z,0.42
2023-01-30T11:14:07.489Z,0.55
2023-01-30T11:16:46.285Z,0.52
2023-01-30T11:19:21.205Z,0.67
2023-01-30T11:21:53.097Z,0.75
2023-01-30T11:24:24.879Z,0.85
2023-01-30T11:26:54.693Z,0.79
2023-01-30T11:29:30.434Z,0.92
2023-01-30T11:32:09.604Z,0.77
2023-01-30T11:34:39.241Z,0.76
2023-01-30T11:37:17.126Z,0.82
2023-01-30T11:39:53.906Z,0.55
2023-01-30T11:42:27.992Z,0.68
2023-01-30T11:45:14.870Z,0.70
2023-01-30T11:48:02.935Z,0.66
2023-01-30T11:50:41.805Z,0.61
2023-01-30T11:53:31.291Z,0.57
2023-01-30T11:56:08.823Z,0.52
2023-01-30T11:58:41.398Z,0.74
2023-01-30T12:01:12.303Z,0.86
2023-01-30T12:03:49.912Z,0.81
2023-01-30T12:06:30.301Z,0.87
2023-01-30T12:09:00.451Z,0.78
2023-01-30T12:11:33.040Z,0.72
2023-01-30T12:14:18.934Z,0.88
2023-01-30T12:17:00.241Z,0.71
2023-01-30T12:19:50.782Z,0.72
2023-01-30T12:22:31.022Z,0.69
2023-01-30T12:25:01.979Z,0.84
2023-01-30T12:27:47.540Z,0.89
2023-01-30T12:30:27.775Z,0.97
2023-01-30T12:35:49.065Z,1.09
2023-01-30T12:38:32.499Z,1.03
2023-01-30T12:41:16.192Z,1.10
2023-01-30T12:44:05.708Z,0.88
2023-01-30T12:46:56.328Z,0.93
2023-01-30T12:49:45.115Z,0.99
2023-01-30T12:52:43.187Z,0.95
2023-01-30T12:55:24.139Z,0.63
2023-01-30T12:58:00.654Z,0.80
2023-01-30T13:00:42.794Z,0.63
2023-01-30T13:03:24.189Z,0.68
2023-01-30T13:06:00.363Z,0.67
2023-01-30T13:08:44.376Z,0.77
2023-01-30T13:11:31.342Z,0.58
2023-01-30T13:14:08.389Z,0.55
2023-01-30T13:16:47.441Z,0.65
2023-01-30T13:19:23.073Z,0.60
2023-01-30T13:22:03.192Z,0.64
2023-01-30T13:24:44.347Z,0.69
2023-01-30T13:27:18.895Z,0.62
2023-01-30T13:29:50.037Z,0.65
2023-01-30T13:32:28.720Z,0.72
2023-01-30T13:35:00.909Z,0.84
2023-01-30T13:37:31.626Z,0.96
2023-01-30T13:40:08.422Z,0.77
2023-01-30T13:42:43.338Z,0.80
2023-01-30T13:45:18.797Z,0.94
2023-01-30T13:47:58.290Z,1.04
2023-01-30T13:50:38.206Z,0.95
2023-01-30T13:53:13.488Z,0.87
2023-01-30T13:55:53.933Z,0.90
2023-01-30T13:58:44.695Z,0.89
2023-01-30T14:01:15.483Z,0.86
2023-01-30T14:03:45.372Z,0.83
2023-01-30T14:06:39.765Z,0.71
2023-01-30T14:09:22.677Z,0.66
2023-01-30T14:11:59.647Z,0.67
2023-01-30T14:14:33.309Z,0.54
2023-01-30T14:17:17.797Z,0.41
2023-01-30T14:20:07.622Z,0.41
2023-01-30T14:22:52.130Z,0.60
2023-01-30T14:25:36.137Z,0.58
2023-01-30T14:28:56.832Z,0.62
2023-01-30T14:31:55.553Z,0.63
2023-01-30T14:35:14.244Z,0.71
2023-01-30T14:38:11.239Z,0.67
2023-01-30T14:40:45.369Z,0.56
2023-01-30T14:43:52.611Z,0.70
2023-01-30T14:46:55.048Z,0.63
2023-01-30T14:49:33.737Z,0.56
2023-01-30T14:52:04.824Z,0.48
2023-01-30T14:54:42.707Z,0.49
2023-01-30T14:57:25.017Z,0.36
2023-01-30T15:00:17.102Z,0.38
2023-01-30T15:02:53.602Z,0.42
2023-01-30T15:05:33.916Z,0.28
2023-01-30T15:08:10.970Z,0.33
2023-01-30T15:11:06.575Z,0.31
2023-01-30T15:13:49.353Z,0.20
2023-01-30T15:16:38.759Z,0.15
2023-01-30T15:19:24.617Z,0.27
2023-01-30T15:22:05.909Z,0.24
2023-01-30T15:25:08.558Z,0.14
2023-01-30T15:27:53.932Z,0.00
2023-01-30T15:30:35.209Z,0.11
2023-01-30T15:33:22.820Z,0.13
2023-01-30T15:35:58.677Z,0.01
2023-01-30T15:38:31.484Z,-0.03
2023-01-30T15:41:04.661Z,-0.03
2023-01-30T15:44:00.360Z,-0.19
2023-01-30T15:46:40.995Z,-0.22
2023-01-30T15:49:36.473Z,-0.21
2023-01-30T15:52:07.528Z,-0.32
2023-01-30T15:54:37.334Z,-0.31
2023-01-30T15:57:06.616Z,-0.39
2023-01-30T15:59:40.356Z,-0.41
2023-01-30T16:02:17.888Z,-0.50
2023-01-30T16:04:47.052Z,-0.51
2023-01-30T16:07:17.180Z,-0.45
2023-01-30T16:10:06.836Z,-0.51
2023-01-30T16:12:41.133Z,-0.54
2023-01-30T16:15:20.549Z,-0.54
2023-01-30T16:18:00.028Z,-0.53
2023-01-30T16:20:29.851Z,-0.48
2023-01-30T16:22:59.203Z,-0.58
2023-01-30T16:25:34.707Z,-0.52
2023-01-30T16:28:04.546Z,-0.52
2023-01-30T16:30:35.240Z,-0.54
2023-01-30T16:33:10.816Z,-0.52
2023-01-30T16:35:46.987Z,-0.45
2023-01-30T16:38:33.149Z,-0.54
2023-01-30T16:41:02.288Z,-0.58
2023-01-30T16:43:34.172Z,-0.59
2023-01-30T16:46:46.615Z,-0.60
2023-01-30T16:49:21.233Z,-0.56
2023-01-30T16:51:52.283Z,-0.56
2023-01-30T16:54:25.083Z,-0.48
2023-01-30T16:56:57.414Z,-0.61
2023-01-30T16:59:31.865Z,-0.63
2023-01-30T17:02:04.322Z,-0.64
2023-01-30T17:04:35.975Z,-0.61
2023-01-30T17:07:07.013Z,-0.64
2023-01-30T17:09:40.973Z,-0.56
2023-01-30T17:12:48.802Z,-0.61
2023-01-30T17:15:37.163Z,-0.66
2023-01-30T17:18:10.837Z,-0.66
2023-01-30T17:20:47.752Z,-0.69
2023-01-30T17:23:20.785Z,-0.73
2023-01-30T17:25:51.409Z,-0.69
2023-01-30T17:28:24.556Z,-0.77
2023-01-30T17:30:54.494Z,-0.84
2023-01-30T17:33:26.809Z,-0.89
2023-01-30T17:35:56.045Z,-0.96
2023-01-30T17:38:25.120Z,-0.98
2023-01-30T17:40:54.279Z,-1.15
2023-01-30T17:43:23.572Z,-1.13
2023-01-30T17:45:53.969Z,-1.19
2023-01-30T17:48:25.271Z,-1.14
2023-01-30T17:50:54.407Z,-1.08
2023-01-30T17:53:23.401Z,-1.14
2023-01-30T17:55:52.554Z,-1.04
2023-01-30T17:58:22.850Z,-0.94
2023-01-30T18:00:53.181Z,-0.93
2023-01-30T18:03:22.879Z,-0.92
2023-01-30T18:05:54.052Z,-0.81
2023-01-30T18:08:26.210Z,-0.78
2023-01-30T18:10:55.829Z,-0.71
2023-01-30T18:13:24.864Z,-0.74
2023-01-30T18:16:00.370Z,-0.64
2023-01-30T18:18:29.805Z,-0.71
2023-01-30T18:21:01.231Z,-0.69
2023-01-30T18:23:31.156Z,-0.70
2023-01-30T18:26:00.319Z,-0.73
2023-01-30T18:28:29.431Z,-0.80
2023-01-30T18:30:59.580Z,-0.70
2023-01-30T18:36:17.526Z,-0.51
2023-01-30T18:38:46.977Z,-0.57
2023-01-30T18:41:19.558Z,-0.49
2023-01-30T18:43:50.720Z,-0.51
2023-01-30T18:46:20.854Z,-0.52
2023-01-30T18:48:50.495Z,-0.52
2023-01-30T18:51:23.390Z,-0.53
2023-01-30T18:53:54.913Z,-0.49
2023-01-30T18:56:26.990Z,-0.47
2023-01-30T18:58:56.603Z,-0.38
2023-01-30T19:01:27.117Z,-0.46
2023-01-30T19:03:57.039Z,-0.48
2023-01-30T19:06:29.348Z,-0.51
2023-01-30T19:08:59.373Z,-0.53
2023-01-30T19:11:46.215Z,-0.55
2023-01-30T19:14:15.801Z,-0.61
2023-01-30T19:16:45.008Z,-0.57
2023-01-30T19:19:14.283Z,-0.56
2023-01-30T19:21:45.500Z,-0.59
2023-01-30T19:24:16.609Z,-0.64
2023-01-30T19:26:46.797Z,-0.63
2023-01-30T19:29:16.737Z,-0.64
2023-01-30T19:31:47.549Z,-0.64
2023-01-30T19:34:17.627Z,-0.63
2023-01-30T19:36:48.435Z,-0.62
2023-01-30T19:39:17.862Z,-0.60
2023-01-30T19:41:47.937Z,-0.62
2023-01-30T19:44:17.171Z,-0.62
2023-01-30T19:46:46.998Z,-0.63
2023-01-30T19:49:16.653Z,-0.59
2023-01-30T19:51:45.849Z,-0.60
2023-01-30T19:54:16.507Z,-0.51
2023-01-30T19:56:48.537Z,-0.55
2023-01-30T19:59:17.993Z,-0.59
2023-01-30T20:01:47.981Z,-0.60
2023-01-30T20:04:17.839Z,-0.60
2023-01-30T20:06:46.964Z,-0.60
2023-01-30T20:09:17.940Z,-0.62
2023-01-30T20:11:47.139Z,-0.61
2023-01-30T20:14:16.663Z,-0.65
2023-01-30T20:16:46.214Z,-0.64
2023-01-30T20:19:17.031Z,-0.60
2023-01-30T20:21:46.904Z,-0.59
2023-01-30T20:24:19.464Z,-0.56
2023-01-30T20:26:49.316Z,-0.56
2023-01-30T20:29:18.347Z,-0.56
2023-01-30T20:31:47.605Z,-0.61
2023-01-30T20:34:18.960Z,-0.65
2023-01-30T20:36:48.025Z,-0.67
2023-01-30T20:39:20.922Z,-0.62
2023-01-30T20:41:50.312Z,-0.62
2023-01-30T20:44:20.731Z,-0.61
2023-01-30T20:46:51.153Z,-0.65
2023-01-30T20:49:22.821Z,-0.64
2023-01-30T20:51:53.270Z,-0.62
2023-01-30T20:54:25.528Z,-0.63
2023-01-30T20:56:55.575Z,-0.66
2023-01-30T20:59:27.548Z,-0.59
2023-01-30T21:01:56.915Z,-0.61
2023-01-30T21:04:25.992Z,-0.64
2023-01-30T21:06:55.229Z,-0.59
2023-01-30T21:09:26.037Z,-0.59
2023-01-30T21:11:57.141Z,-0.65
2023-01-30T21:14:26.744Z,-0.76
2023-01-30T21:16:56.168Z,-0.67
2023-01-30T21:19:25.909Z,-0.66
2023-01-30T21:22:14.218Z,-0.70
2023-01-30T21:25:05.143Z,-0.64
2023-01-30T21:27:52.875Z,-0.70
2023-01-30T21:30:42.204Z,-0.79
2023-01-30T21:33:30.537Z,-0.64
2023-01-30T21:36:18.985Z,-0.66
2023-01-30T21:39:25.427Z,-0.65
2023-01-30T21:42:31.740Z,-0.59
2023-01-30T21:45:21.205Z,-0.81
2023-01-30T21:48:08.923Z,-0.63
2023-01-30T21:50:57.599Z,-0.53
2023-01-30T21:53:45.483Z,-0.52
2023-01-30T21:56:33.805Z,-0.49
2023-01-30T21:59:22.972Z,-0.42
2023-01-30T22:02:11.454Z,-0.41
2023-01-30T22:04:59.214Z,-0.35
2023-01-30T22:07:46.673Z,-0.42
2023-01-30T22:10:34.347Z,-0.40
2023-01-30T22:13:21.966Z,-0.35
2023-01-30T22:16:12.741Z,-0.45
2023-01-30T22:19:03.043Z,-0.40
2023-01-30T22:21:51.154Z,-0.50
2023-01-30T22:24:38.920Z,-0.51
2023-01-30T22:27:26.470Z,-0.50
2023-01-30T22:30:15.709Z,-0.48
2023-01-30T22:33:04.559Z,-0.50
2023-01-30T22:35:52.073Z,-0.42
2023-01-30T22:38:44.193Z,-0.47
2023-01-30T22:41:34.927Z,-0.31
2023-01-30T22:44:22.680Z,-0.53
2023-01-30T22:47:10.304Z,-0.39
2023-01-30T22:49:59.377Z,-0.29
2023-01-30T22:52:47.874Z,-0.22
2023-01-30T22:55:36.992Z,-0.25
2023-01-30T22:58:25.342Z,-0.24
2023-01-30T23:01:20.376Z,-0.23
2023-01-30T23:04:11.773Z,-0.25
2023-01-30T23:07:00.376Z,-0.24
2023-01-30T23:09:47.693Z,-0.27
2023-01-30T23:12:52.472Z,-0.19
2023-01-30T23:15:43.059Z,-0.12
2023-01-30T23:18:48.537Z,-0.13
2023-01-30T23:21:38.032Z,-0.21
2023-01-30T23:24:27.010Z,-0.22
2023-01-30T23:27:14.986Z,-0.22
2023-01-30T23:30:02.315Z,-0.23
2023-01-30T23:32:50.604Z,-0.24
2023-01-30T23:35:38.874Z,-0.26
2023-01-30T23:38:26.484Z,-0.16
2023-01-30T23:41:18.669Z,-0.21
2023-01-30T23:44:07.392Z,-0.17
2023-01-30T23:46:55.310Z,-0.20
2023-01-30T23:49:44.324Z,-0.16
2023-01-30T23:52:31.842Z,-0.12
2023-01-30T23:55:19.654Z,-0.12
2023-01-30T23:58:09.506Z,-0.17
